sensor_id;sensor_type;location;lat;lon;timestamp;temperature;humidity
48206;DHT22;33995;48.202;16.260;2023-02-28T00:01:11;1.30;99.90
48206;DHT22;33995;48.202;16.260;2023-02-28T00:03:39;1.30;99.90
48206;DHT22;33995;48.202;16.260;2023-02-28T00:06:09;1.10;99.90
48206;DHT22;33995;48.202;16.260;2023-02-28T00:08:37;1.20;99.90
48206;DHT22;33995;48.202;16.260;2023-02-28T00:11:06;1.10;99.90
48206;DHT22;33995;48.202;16.260;2023-02-28T00:13:36;1.00;99.90
48206;DHT22;33995;48.202;16.260;2023-02-28T00:16:06;1.10;99.90
48206;DHT22;33995;48.202;16.260;2023-02-28T00:18:34;1.20;99.90
48206;DHT22;33995;48.202;16.260;2023-02-28T00:21:01;1.20;99.90
48206;DHT22;33995;48.202;16.260;2023-02-28T00:23:30;1.20;99.90
48206;DHT22;33995;48.202;16.260;2023-02-28T00:25:57;1.00;99.90
48206;DHT22;33995;48.202;16.260;2023-02-28T00:28:24;0.90;99.90
48206;DHT22;33995;48.202;16.260;2023-02-28T00:30:51;0.90;99.90
48206;DHT22;33995;48.202;16.260;2023-02-28T00:33:19;0.80;99.90
48206;DHT22;33995;48.202;16.260;2023-02-28T00:35:46;0.70;99.90
48206;DHT22;33995;48.202;16.260;2023-02-28T00:38:15;0.70;99.90
48206;DHT22;33995;48.202;16.260;2023-02-28T00:40:42;0.80;99.90
48206;DHT22;33995;48.202;16.260;2023-02-28T00:43:10;0.50;99.90
48206;DHT22;33995;48.202;16.260;2023-02-28T00:45:38;0.50;99.90
48206;DHT22;33995;48.202;16.260;2023-02-28T00:48:06;0.50;99.90
48206;DHT22;33995;48.202;16.260;2023-02-28T00:50:33;0.70;99.90
48206;DHT22;33995;48.202;16.260;2023-02-28T00:53:00;0.70;99.90
48206;DHT22;33995;48.202;16.260;2023-02-28T00:55:26;0.50;99.90
48206;DHT22;33995;48.202;16.260;2023-02-28T00:57:54;0.40;99.90
48206;DHT22;33995;48.202;16.260;2023-02-28T01:00:21;0.40;99.90
48206;DHT22;33995;48.202;16.260;2023-02-28T01:02:49;0.30;99.90
48206;DHT22;33995;48.202;16.260;2023-02-28T01:05:17;0.20;99.90
48206;DHT22;33995;48.202;16.260;2023-02-28T01:07:44;0.10;99.90
48206;DHT22;33995;48.202;16.260;2023-02-28T01:10:12;0.20;99.90
48206;DHT22;33995;48.202;16.260;2023-02-28T01:12:40;0.30;99.90
48206;DHT22;33995;48.202;16.260;2023-02-28T01:15:10;0.50;99.90
48206;DHT22;33995;48.202;16.260;2023-02-28T01:17:37;0.30;99.90
48206;DHT22;33995;48.202;16.260;2023-02-28T01:20:05;0.40;99.90
48206;DHT22;33995;48.202;16.260;2023-02-28T01:22:34;0.50;99.90
48206;DHT22;33995;48.202;16.260;2023-02-28T01:25:01;0.40;99.90
48206;DHT22;33995;48.202;16.260;2023-02-28T01:27:30;0.30;99.90
48206;DHT22;33995;48.202;16.260;2023-02-28T01:29:58;0.50;99.90
48206;DHT22;33995;48.202;16.260;2023-02-28T01:32:25;0.60;99.90
48206;DHT22;33995;48.202;16.260;2023-02-28T01:34:52;0.60;99.90
48206;DHT22;33995;48.202;16.260;2023-02-28T01:37:19;0.60;99.90
48206;DHT22;33995;48.202;16.260;2023-02-28T01:39:47;0.60;99.90
48206;DHT22;33995;48.202;16.260;2023-02-28T01:42:14;0.60;99.90
48206;DHT22;33995;48.202;16.260;2023-02-28T01:45:03;0.70;99.90
48206;DHT22;33995;48.202;16.260;2023-02-28T01:47:41;0.80;99.90
48206;DHT22;33995;48.202;16.260;2023-02-28T01:50:21;0.80;99.90
48206;DHT22;33995;48.202;16.260;2023-02-28T01:52:51;0.90;99.90
48206;DHT22;33995;48.202;16.260;2023-02-28T01:55:20;0.80;99.90
48206;DHT22;33995;48.202;16.260;2023-02-28T01:57:53;0.90;99.90
48206;DHT22;33995;48.202;16.260;2023-02-28T02:00:24;0.80;99.90
48206;DHT22;33995;48.202;16.260;2023-02-28T02:02:59;0.70;99.90
48206;DHT22;33995;48.202;16.260;2023-02-28T02:05:29;0.80;99.90
48206;DHT22;33995;48.202;16.260;2023-02-28T02:08:09;0.80;99.90
48206;DHT22;33995;48.202;16.260;2023-02-28T02:10:46;0.90;99.90
48206;DHT22;33995;48.202;16.260;2023-02-28T02:13:50;0.80;99.90
48206;DHT22;33995;48.202;16.260;2023-02-28T02:24:58;0.90;99.90
48206;DHT22;33995;48.202;16.260;2023-02-28T02:27:43;1.00;99.90
48206;DHT22;33995;48.202;16.260;2023-02-28T02:35:47;1.00;99.90
48206;DHT22;33995;48.202;16.260;2023-02-28T02:41:10;1.10;99.90
48206;DHT22;33995;48.202;16.260;2023-02-28T02:43:56;1.10;99.90
48206;DHT22;33995;48.202;16.260;2023-02-28T02:46:45;1.10;99.90
48206;DHT22;33995;48.202;16.260;2023-02-28T02:49:24;1.00;99.90
48206;DHT22;33995;48.202;16.260;2023-02-28T02:51:53;1.00;99.90
48206;DHT22;33995;48.202;16.260;2023-02-28T02:54:25;0.90;99.90
48206;DHT22;33995;48.202;16.260;2023-02-28T02:57:05;0.90;99.90
48206;DHT22;33995;48.202;16.260;2023-02-28T02:59:37;0.90;99.90
48206;DHT22;33995;48.202;16.260;2023-02-28T03:02:08;0.90;99.90
48206;DHT22;33995;48.202;16.260;2023-02-28T03:04:42;0.90;99.90
48206;DHT22;33995;48.202;16.260;2023-02-28T03:07:09;0.90;99.90
48206;DHT22;33995;48.202;16.260;2023-02-28T03:09:36;0.80;99.90
48206;DHT22;33995;48.202;16.260;2023-02-28T03:12:10;0.80;99.90
48206;DHT22;33995;48.202;16.260;2023-02-28T03:17:42;0.80;99.90
48206;DHT22;33995;48.202;16.260;2023-02-28T03:20:31;0.80;99.90
48206;DHT22;33995;48.202;16.260;2023-02-28T03:23:16;0.80;99.90
48206;DHT22;33995;48.202;16.260;2023-02-28T03:28:40;0.70;99.90
48206;DHT22;33995;48.202;16.260;2023-02-28T03:31:30;0.70;99.90
48206;DHT22;33995;48.202;16.260;2023-02-28T03:34:12;0.50;99.90
48206;DHT22;33995;48.202;16.260;2023-02-28T03:36:45;0.50;99.90
48206;DHT22;33995;48.202;16.260;2023-02-28T03:39:19;0.50;99.90
48206;DHT22;33995;48.202;16.260;2023-02-28T03:41:56;0.50;99.90
48206;DHT22;33995;48.202;16.260;2023-02-28T03:44:30;0.50;99.90
48206;DHT22;33995;48.202;16.260;2023-02-28T03:47:15;0.40;99.90
48206;DHT22;33995;48.202;16.260;2023-02-28T03:49:49;0.40;99.90
48206;DHT22;33995;48.202;16.260;2023-02-28T03:52:20;0.40;99.90
48206;DHT22;33995;48.202;16.260;2023-02-28T03:54:54;0.40;99.90
48206;DHT22;33995;48.202;16.260;2023-02-28T04:00:12;0.30;99.90
48206;DHT22;33995;48.202;16.260;2023-02-28T04:02:41;0.30;99.90
48206;DHT22;33995;48.202;16.260;2023-02-28T04:05:08;0.30;99.90
48206;DHT22;33995;48.202;16.260;2023-02-28T04:07:35;0.30;99.90
48206;DHT22;33995;48.202;16.260;2023-02-28T04:10:04;0.20;99.90
48206;DHT22;33995;48.202;16.260;2023-02-28T04:12:31;0.20;99.90
48206;DHT22;33995;48.202;16.260;2023-02-28T04:14:59;0.20;99.90
48206;DHT22;33995;48.202;16.260;2023-02-28T04:17:26;0.20;99.90
48206;DHT22;33995;48.202;16.260;2023-02-28T04:19:53;0.10;99.90
48206;DHT22;33995;48.202;16.260;2023-02-28T04:22:23;0.10;99.90
48206;DHT22;33995;48.202;16.260;2023-02-28T04:24:54;0.20;99.90
48206;DHT22;33995;48.202;16.260;2023-02-28T04:27:22;0.20;99.90
48206;DHT22;33995;48.202;16.260;2023-02-28T04:29:49;0.10;99.90
48206;DHT22;33995;48.202;16.260;2023-02-28T04:32:16;0.10;99.90
48206;DHT22;33995;48.202;16.260;2023-02-28T04:34:43;0.10;99.90
48206;DHT22;33995;48.202;16.260;2023-02-28T04:37:11;0.10;99.90
48206;DHT22;33995;48.202;16.260;2023-02-28T04:39:41;0.20;99.90
48206;DHT22;33995;48.202;16.260;2023-02-28T04:42:09;0.20;99.90
48206;DHT22;33995;48.202;16.260;2023-02-28T04:44:36;0.10;99.90
48206;DHT22;33995;48.202;16.260;2023-02-28T04:47:04;0.00;99.90
48206;DHT22;33995;48.202;16.260;2023-02-28T04:49:31;0.00;99.90
48206;DHT22;33995;48.202;16.260;2023-02-28T04:51:59;0.10;99.90
48206;DHT22;33995;48.202;16.260;2023-02-28T04:54:27;0.00;99.90
48206;DHT22;33995;48.202;16.260;2023-02-28T04:56:55;0.10;99.90
48206;DHT22;33995;48.202;16.260;2023-02-28T04:59:22;0.10;99.90
48206;DHT22;33995;48.202;16.260;2023-02-28T05:01:49;0.00;99.90
48206;DHT22;33995;48.202;16.260;2023-02-28T05:04:16;0.00;99.90
48206;DHT22;33995;48.202;16.260;2023-02-28T05:06:46;0.00;99.90
48206;DHT22;33995;48.202;16.260;2023-02-28T05:09:14;-0.10;99.90
48206;DHT22;33995;48.202;16.260;2023-02-28T05:11:41;-0.10;99.90
48206;DHT22;33995;48.202;16.260;2023-02-28T05:14:13;-0.10;99.90
48206;DHT22;33995;48.202;16.260;2023-02-28T05:16:41;-0.20;99.90
48206;DHT22;33995;48.202;16.260;2023-02-28T05:19:08;-0.30;99.90
48206;DHT22;33995;48.202;16.260;2023-02-28T05:21:48;-0.20;99.90
48206;DHT22;33995;48.202;16.260;2023-02-28T05:24:16;-0.20;99.90
48206;DHT22;33995;48.202;16.260;2023-02-28T05:26:52;-0.10;99.90
48206;DHT22;33995;48.202;16.260;2023-02-28T05:29:20;-0.20;99.90
48206;DHT22;33995;48.202;16.260;2023-02-28T05:31:48;-0.20;99.90
48206;DHT22;33995;48.202;16.260;2023-02-28T05:34:15;-0.20;99.90
48206;DHT22;33995;48.202;16.260;2023-02-28T05:36:43;-0.40;99.90
48206;DHT22;33995;48.202;16.260;2023-02-28T05:39:11;-0.40;99.90
48206;DHT22;33995;48.202;16.260;2023-02-28T05:41:43;-0.30;99.90
48206;DHT22;33995;48.202;16.260;2023-02-28T05:44:11;-0.30;99.90
48206;DHT22;33995;48.202;16.260;2023-02-28T05:46:38;-0.30;99.90
48206;DHT22;33995;48.202;16.260;2023-02-28T05:49:05;-0.20;99.90
48206;DHT22;33995;48.202;16.260;2023-02-28T05:51:32;-0.20;99.90
48206;DHT22;33995;48.202;16.260;2023-02-28T05:54:01;-0.20;99.90
48206;DHT22;33995;48.202;16.260;2023-02-28T05:56:29;-0.10;99.90
48206;DHT22;33995;48.202;16.260;2023-02-28T05:58:56;-0.10;99.90
48206;DHT22;33995;48.202;16.260;2023-02-28T06:01:34;0.00;99.90
48206;DHT22;33995;48.202;16.260;2023-02-28T06:04:04;0.00;99.90
48206;DHT22;33995;48.202;16.260;2023-02-28T06:06:32;0.00;99.90
48206;DHT22;33995;48.202;16.260;2023-02-28T06:09:04;0.00;99.90
48206;DHT22;33995;48.202;16.260;2023-02-28T06:11:32;0.00;99.90
48206;DHT22;33995;48.202;16.260;2023-02-28T06:14:01;0.00;99.90
48206;DHT22;33995;48.202;16.260;2023-02-28T06:16:31;0.10;99.90
48206;DHT22;33995;48.202;16.260;2023-02-28T06:19:00;0.10;99.90
48206;DHT22;33995;48.202;16.260;2023-02-28T06:21:28;0.10;99.90
48206;DHT22;33995;48.202;16.260;2023-02-28T06:23:57;0.20;99.90
48206;DHT22;33995;48.202;16.260;2023-02-28T06:26:25;0.20;99.90
48206;DHT22;33995;48.202;16.260;2023-02-28T06:28:53;0.20;99.90
48206;DHT22;33995;48.202;16.260;2023-02-28T06:31:20;0.20;99.90
48206;DHT22;33995;48.202;16.260;2023-02-28T06:33:49;0.10;99.90
48206;DHT22;33995;48.202;16.260;2023-02-28T06:36:17;0.10;99.90
48206;DHT22;33995;48.202;16.260;2023-02-28T06:38:44;0.20;99.90
48206;DHT22;33995;48.202;16.260;2023-02-28T06:41:11;0.30;99.90
48206;DHT22;33995;48.202;16.260;2023-02-28T06:43:41;0.30;99.90
48206;DHT22;33995;48.202;16.260;2023-02-28T06:46:12;0.30;99.90
48206;DHT22;33995;48.202;16.260;2023-02-28T06:48:44;0.40;99.90
48206;DHT22;33995;48.202;16.260;2023-02-28T06:51:17;0.40;99.90
48206;DHT22;33995;48.202;16.260;2023-02-28T06:53:48;0.50;99.90
48206;DHT22;33995;48.202;16.260;2023-02-28T06:56:16;0.50;99.90
48206;DHT22;33995;48.202;16.260;2023-02-28T06:58:48;0.50;99.90
48206;DHT22;33995;48.202;16.260;2023-02-28T07:01:16;0.60;99.90
48206;DHT22;33995;48.202;16.260;2023-02-28T07:03:43;0.60;99.90
48206;DHT22;33995;48.202;16.260;2023-02-28T07:06:10;0.60;99.90
48206;DHT22;33995;48.202;16.260;2023-02-28T07:08:38;0.60;99.90
48206;DHT22;33995;48.202;16.260;2023-02-28T07:11:06;0.70;99.90
48206;DHT22;33995;48.202;16.260;2023-02-28T07:13:33;0.60;99.90
48206;DHT22;33995;48.202;16.260;2023-02-28T07:16:03;0.70;99.90
48206;DHT22;33995;48.202;16.260;2023-02-28T07:18:31;0.70;99.90
48206;DHT22;33995;48.202;16.260;2023-02-28T07:21:02;0.70;99.90
48206;DHT22;33995;48.202;16.260;2023-02-28T07:23:29;0.70;99.90
48206;DHT22;33995;48.202;16.260;2023-02-28T07:25:56;0.70;99.90
48206;DHT22;33995;48.202;16.260;2023-02-28T07:28:26;0.90;99.90
48206;DHT22;33995;48.202;16.260;2023-02-28T07:30:55;0.80;99.90
48206;DHT22;33995;48.202;16.260;2023-02-28T07:33:22;0.80;99.90
48206;DHT22;33995;48.202;16.260;2023-02-28T07:35:50;0.90;99.90
48206;DHT22;33995;48.202;16.260;2023-02-28T07:38:19;1.00;99.90
48206;DHT22;33995;48.202;16.260;2023-02-28T07:40:47;1.10;99.90
48206;DHT22;33995;48.202;16.260;2023-02-28T07:43:14;1.10;99.90
48206;DHT22;33995;48.202;16.260;2023-02-28T07:45:43;1.10;99.90
48206;DHT22;33995;48.202;16.260;2023-02-28T07:48:11;1.10;99.90
48206;DHT22;33995;48.202;16.260;2023-02-28T07:50:38;1.20;99.90
48206;DHT22;33995;48.202;16.260;2023-02-28T07:53:05;1.30;99.90
48206;DHT22;33995;48.202;16.260;2023-02-28T07:55:32;1.10;99.90
48206;DHT22;33995;48.202;16.260;2023-02-28T07:57:59;1.40;99.90
48206;DHT22;33995;48.202;16.260;2023-02-28T08:00:27;1.40;99.90
48206;DHT22;33995;48.202;16.260;2023-02-28T08:02:57;1.40;99.90
48206;DHT22;33995;48.202;16.260;2023-02-28T08:05:26;1.40;99.90
48206;DHT22;33995;48.202;16.260;2023-02-28T08:07:54;1.40;99.90
48206;DHT22;33995;48.202;16.260;2023-02-28T08:10:24;1.50;99.90
48206;DHT22;33995;48.202;16.260;2023-02-28T08:12:51;1.70;99.90
48206;DHT22;33995;48.202;16.260;2023-02-28T08:15:18;1.90;99.90
48206;DHT22;33995;48.202;16.260;2023-02-28T08:17:45;1.90;99.90
48206;DHT22;33995;48.202;16.260;2023-02-28T08:20:13;2.20;99.90
48206;DHT22;33995;48.202;16.260;2023-02-28T08:22:40;2.20;99.90
48206;DHT22;33995;48.202;16.260;2023-02-28T08:25:11;2.30;99.90
48206;DHT22;33995;48.202;16.260;2023-02-28T08:27:38;2.30;99.90
48206;DHT22;33995;48.202;16.260;2023-02-28T08:30:06;2.20;99.90
48206;DHT22;33995;48.202;16.260;2023-02-28T08:32:33;2.20;99.90
48206;DHT22;33995;48.202;16.260;2023-02-28T08:35:01;2.30;99.90
48206;DHT22;33995;48.202;16.260;2023-02-28T08:37:29;2.40;99.90
48206;DHT22;33995;48.202;16.260;2023-02-28T08:39:59;2.50;99.90
48206;DHT22;33995;48.202;16.260;2023-02-28T08:42:28;2.50;99.90
48206;DHT22;33995;48.202;16.260;2023-02-28T08:44:55;2.80;99.90
48206;DHT22;33995;48.202;16.260;2023-02-28T08:47:22;3.00;99.90
48206;DHT22;33995;48.202;16.260;2023-02-28T08:49:49;3.10;99.90
48206;DHT22;33995;48.202;16.260;2023-02-28T08:52:17;3.30;99.90
48206;DHT22;33995;48.202;16.260;2023-02-28T08:54:44;3.40;99.90
48206;DHT22;33995;48.202;16.260;2023-02-28T08:57:11;3.80;99.90
48206;DHT22;33995;48.202;16.260;2023-02-28T08:59:38;3.70;99.90
48206;DHT22;33995;48.202;16.260;2023-02-28T09:02:05;3.80;99.90
48206;DHT22;33995;48.202;16.260;2023-02-28T09:04:34;3.80;99.90
48206;DHT22;33995;48.202;16.260;2023-02-28T09:07:02;4.20;99.90
48206;DHT22;33995;48.202;16.260;2023-02-28T09:09:29;4.50;99.90
48206;DHT22;33995;48.202;16.260;2023-02-28T09:11:57;4.60;99.90
48206;DHT22;33995;48.202;16.260;2023-02-28T09:14:24;4.40;99.90
48206;DHT22;33995;48.202;16.260;2023-02-28T09:16:51;4.70;99.90
48206;DHT22;33995;48.202;16.260;2023-02-28T09:19:18;5.00;99.90
48206;DHT22;33995;48.202;16.260;2023-02-28T09:21:45;5.20;99.90
48206;DHT22;33995;48.202;16.260;2023-02-28T09:24:13;5.00;99.90
48206;DHT22;33995;48.202;16.260;2023-02-28T09:26:41;5.10;99.90
48206;DHT22;33995;48.202;16.260;2023-02-28T09:29:29;5.10;99.90
48206;DHT22;33995;48.202;16.260;2023-02-28T09:31:58;5.20;99.90
48206;DHT22;33995;48.202;16.260;2023-02-28T09:34:28;5.20;99.90
48206;DHT22;33995;48.202;16.260;2023-02-28T09:36:57;5.20;99.90
48206;DHT22;33995;48.202;16.260;2023-02-28T09:39:25;5.10;99.90
48206;DHT22;33995;48.202;16.260;2023-02-28T09:41:54;5.30;99.90
48206;DHT22;33995;48.202;16.260;2023-02-28T09:44:43;5.30;99.90
48206;DHT22;33995;48.202;16.260;2023-02-28T09:47:29;5.20;99.90
48206;DHT22;33995;48.202;16.260;2023-02-28T09:50:06;5.50;99.90
48206;DHT22;33995;48.202;16.260;2023-02-28T09:52:38;5.60;99.90
48206;DHT22;33995;48.202;16.260;2023-02-28T09:57:46;6.00;99.90
48206;DHT22;33995;48.202;16.260;2023-02-28T10:05:33;6.10;99.90
48206;DHT22;33995;48.202;16.260;2023-02-28T10:08:14;6.30;99.90
48206;DHT22;33995;48.202;16.260;2023-02-28T10:10:44;6.50;99.90
48206;DHT22;33995;48.202;16.260;2023-02-28T10:15:52;6.60;99.90
48206;DHT22;33995;48.202;16.260;2023-02-28T10:18:37;6.90;99.90
48206;DHT22;33995;48.202;16.260;2023-02-28T10:27:18;6.80;99.90
48206;DHT22;33995;48.202;16.260;2023-02-28T10:32:19;7.50;99.90
48206;DHT22;33995;48.202;16.260;2023-02-28T10:35:21;7.90;99.90
48206;DHT22;33995;48.202;16.260;2023-02-28T10:37:53;8.40;99.90
48206;DHT22;33995;48.202;16.260;2023-02-28T10:45:28;8.40;99.90
48206;DHT22;33995;48.202;16.260;2023-02-28T10:47:59;7.90;99.90
48206;DHT22;33995;48.202;16.260;2023-02-28T10:50:37;7.90;99.90
48206;DHT22;33995;48.202;16.260;2023-02-28T10:53:25;8.30;99.90
48206;DHT22;33995;48.202;16.260;2023-02-28T10:59:11;8.30;99.90
48206;DHT22;33995;48.202;16.260;2023-02-28T11:01:47;7.80;99.90
48206;DHT22;33995;48.202;16.260;2023-02-28T11:07:00;7.70;99.90
48206;DHT22;33995;48.202;16.260;2023-02-28T11:09:33;6.90;99.90
48206;DHT22;33995;48.202;16.260;2023-02-28T11:12:28;7.00;99.90
48206;DHT22;33995;48.202;16.260;2023-02-28T11:15:02;7.10;99.90
48206;DHT22;33995;48.202;16.260;2023-02-28T11:17:31;6.70;99.90
48206;DHT22;33995;48.202;16.260;2023-02-28T11:20:02;7.10;99.90
48206;DHT22;33995;48.202;16.260;2023-02-28T11:22:33;7.30;99.90
48206;DHT22;33995;48.202;16.260;2023-02-28T11:25:09;7.50;99.90
48206;DHT22;33995;48.202;16.260;2023-02-28T11:27:41;7.50;99.90
48206;DHT22;33995;48.202;16.260;2023-02-28T11:30:39;7.80;99.90
48206;DHT22;33995;48.202;16.260;2023-02-28T11:33:31;8.00;99.90
48206;DHT22;33995;48.202;16.260;2023-02-28T11:36:18;8.20;99.90
48206;DHT22;33995;48.202;16.260;2023-02-28T11:38:48;9.20;99.90
48206;DHT22;33995;48.202;16.260;2023-02-28T12:09:10;7.90;99.90
48206;DHT22;33995;48.202;16.260;2023-02-28T12:11:55;8.80;98.60
48206;DHT22;33995;48.202;16.260;2023-02-28T12:28:57;10.70;96.40
48206;DHT22;33995;48.202;16.260;2023-02-28T12:31:30;10.80;96.00
48206;DHT22;33995;48.202;16.260;2023-02-28T12:34:07;11.70;97.30
48206;DHT22;33995;48.202;16.260;2023-02-28T12:36:37;12.30;95.30
48206;DHT22;33995;48.202;16.260;2023-02-28T12:39:10;12.40;94.80
48206;DHT22;33995;48.202;16.260;2023-02-28T12:41:46;11.90;94.20
48206;DHT22;33995;48.202;16.260;2023-02-28T12:44:34;11.80;94.90
48206;DHT22;33995;48.202;16.260;2023-02-28T12:47:10;12.10;93.30
48206;DHT22;33995;48.202;16.260;2023-02-28T12:49:56;12.50;92.70
48206;DHT22;33995;48.202;16.260;2023-02-28T13:01:05;11.10;92.40
48206;DHT22;33995;48.202;16.260;2023-02-28T13:09:24;9.70;93.70
48206;DHT22;33995;48.202;16.260;2023-02-28T13:11:52;9.20;94.00
48206;DHT22;33995;48.202;16.260;2023-02-28T13:19:42;10.00;92.70
48206;DHT22;33995;48.202;16.260;2023-02-28T13:24:54;10.90;92.70
48206;DHT22;33995;48.202;16.260;2023-02-28T13:29:53;11.70;91.50
48206;DHT22;33995;48.202;16.260;2023-02-28T13:32:30;11.50;91.70
48206;DHT22;33995;48.202;16.260;2023-02-28T13:47:44;11.30;90.60
48206;DHT22;33995;48.202;16.260;2023-02-28T13:56:06;12.90;88.20
48206;DHT22;33995;48.202;16.260;2023-02-28T14:06:50;10.30;91.20
48206;DHT22;33995;48.202;16.260;2023-02-28T14:09:39;10.20;91.30
48206;DHT22;33995;48.202;16.260;2023-02-28T14:18:00;14.00;83.90
48206;DHT22;33995;48.202;16.260;2023-02-28T14:20:31;15.20;81.40
48206;DHT22;33995;48.202;16.260;2023-02-28T14:23:16;15.40;80.00
48206;DHT22;33995;48.202;16.260;2023-02-28T14:26:02;14.40;80.00
48206;DHT22;33995;48.202;16.260;2023-02-28T14:31:34;14.60;81.30
48206;DHT22;33995;48.202;16.260;2023-02-28T14:34:20;12.10;84.50
48206;DHT22;33995;48.202;16.260;2023-02-28T14:36:53;13.10;83.90
48206;DHT22;33995;48.202;16.260;2023-02-28T14:39:25;13.00;83.70
48206;DHT22;33995;48.202;16.260;2023-02-28T14:41:55;13.30;81.90
48206;DHT22;33995;48.202;16.260;2023-02-28T14:44:25;15.30;80.60
48206;DHT22;33995;48.202;16.260;2023-02-28T14:47:00;13.80;80.60
48206;DHT22;33995;48.202;16.260;2023-02-28T14:49:36;13.90;82.20
48206;DHT22;33995;48.202;16.260;2023-02-28T14:52:19;14.40;80.10
48206;DHT22;33995;48.202;16.260;2023-02-28T14:54:59;13.00;83.90
48206;DHT22;33995;48.202;16.260;2023-02-28T14:57:40;11.10;86.70
48206;DHT22;33995;48.202;16.260;2023-02-28T15:00:26;9.90;89.70
48206;DHT22;33995;48.202;16.260;2023-02-28T15:02:57;8.50;91.00
48206;DHT22;33995;48.202;16.260;2023-02-28T15:05:26;8.40;92.00
48206;DHT22;33995;48.202;16.260;2023-02-28T15:08:12;10.90;90.10
48206;DHT22;33995;48.202;16.260;2023-02-28T15:11:25;13.50;86.40
48206;DHT22;33995;48.202;16.260;2023-02-28T15:13:43;13.50;83.20
48206;DHT22;33995;48.202;16.260;2023-02-28T15:16:16;14.40;81.70
48206;DHT22;33995;48.202;16.260;2023-02-28T15:18:59;13.20;82.70
48206;DHT22;33995;48.202;16.260;2023-02-28T15:21:31;12.70;84.00
48206;DHT22;33995;48.202;16.260;2023-02-28T15:26:46;9.70;88.30
48206;DHT22;33995;48.202;16.260;2023-02-28T15:29:21;8.30;90.90
48206;DHT22;33995;48.202;16.260;2023-02-28T15:31:52;8.00;92.20
48206;DHT22;33995;48.202;16.260;2023-02-28T15:34:40;7.40;92.90
48206;DHT22;33995;48.202;16.260;2023-02-28T15:45:44;6.40;94.90
48206;DHT22;33995;48.202;16.260;2023-02-28T15:48:30;6.30;95.10
48206;DHT22;33995;48.202;16.260;2023-02-28T15:53:32;6.20;95.70
48206;DHT22;33995;48.202;16.260;2023-02-28T15:56:05;6.20;95.80
48206;DHT22;33995;48.202;16.260;2023-02-28T15:58:36;6.30;95.80
48206;DHT22;33995;48.202;16.260;2023-02-28T16:01:07;6.30;96.50
48206;DHT22;33995;48.202;16.260;2023-02-28T16:03:48;6.30;96.40
48206;DHT22;33995;48.202;16.260;2023-02-28T16:08:44;6.10;96.90
48206;DHT22;33995;48.202;16.260;2023-02-28T16:11:12;6.10;96.70
48206;DHT22;33995;48.202;16.260;2023-02-28T16:13:39;5.80;96.90
48206;DHT22;33995;48.202;16.260;2023-02-28T16:16:06;5.90;97.10
48206;DHT22;33995;48.202;16.260;2023-02-28T16:18:33;5.80;97.20
48206;DHT22;33995;48.202;16.260;2023-02-28T16:21:01;5.70;97.40
48206;DHT22;33995;48.202;16.260;2023-02-28T16:23:28;5.70;97.40
48206;DHT22;33995;48.202;16.260;2023-02-28T16:25:56;5.70;97.60
48206;DHT22;33995;48.202;16.260;2023-02-28T16:28:32;5.80;97.50
48206;DHT22;33995;48.202;16.260;2023-02-28T16:31:05;5.80;97.70
48206;DHT22;33995;48.202;16.260;2023-02-28T16:33:34;5.80;98.40
48206;DHT22;33995;48.202;16.260;2023-02-28T16:36:06;5.70;98.20
48206;DHT22;33995;48.202;16.260;2023-02-28T16:38:36;5.60;98.30
48206;DHT22;33995;48.202;16.260;2023-02-28T16:41:05;5.60;97.80
48206;DHT22;33995;48.202;16.260;2023-02-28T16:43:32;5.60;98.20
48206;DHT22;33995;48.202;16.260;2023-02-28T16:46:00;5.50;98.20
48206;DHT22;33995;48.202;16.260;2023-02-28T16:48:28;5.50;98.60
48206;DHT22;33995;48.202;16.260;2023-02-28T16:50:58;5.40;98.90
48206;DHT22;33995;48.202;16.260;2023-02-28T16:53:25;5.30;98.60
48206;DHT22;33995;48.202;16.260;2023-02-28T16:55:52;5.20;99.00
48206;DHT22;33995;48.202;16.260;2023-02-28T16:58:21;5.20;98.90
48206;DHT22;33995;48.202;16.260;2023-02-28T17:00:52;5.10;99.50
48206;DHT22;33995;48.202;16.260;2023-02-28T17:03:26;5.00;99.60
48206;DHT22;33995;48.202;16.260;2023-02-28T17:06:00;4.90;99.90
48206;DHT22;33995;48.202;16.260;2023-02-28T17:08:27;4.90;99.90
48206;DHT22;33995;48.202;16.260;2023-02-28T17:10:58;4.80;99.90
48206;DHT22;33995;48.202;16.260;2023-02-28T17:13:25;4.70;99.90
48206;DHT22;33995;48.202;16.260;2023-02-28T17:15:53;4.60;99.90
48206;DHT22;33995;48.202;16.260;2023-02-28T17:18:20;4.40;99.90
48206;DHT22;33995;48.202;16.260;2023-02-28T17:20:50;4.30;99.90
48206;DHT22;33995;48.202;16.260;2023-02-28T17:23:17;4.10;99.90
48206;DHT22;33995;48.202;16.260;2023-02-28T17:25:47;4.00;99.90
48206;DHT22;33995;48.202;16.260;2023-02-28T17:28:25;4.00;99.90
48206;DHT22;33995;48.202;16.260;2023-02-28T17:30:53;3.90;99.90
48206;DHT22;33995;48.202;16.260;2023-02-28T17:33:21;3.90;99.90
48206;DHT22;33995;48.202;16.260;2023-02-28T17:35:50;3.70;99.90
48206;DHT22;33995;48.202;16.260;2023-02-28T17:38:21;3.70;99.90
48206;DHT22;33995;48.202;16.260;2023-02-28T17:40:53;3.60;99.90
48206;DHT22;33995;48.202;16.260;2023-02-28T17:43:28;3.50;99.90
48206;DHT22;33995;48.202;16.260;2023-02-28T17:45:56;3.50;99.90
48206;DHT22;33995;48.202;16.260;2023-02-28T17:48:24;3.40;99.90
48206;DHT22;33995;48.202;16.260;2023-02-28T17:50:53;3.30;99.90
48206;DHT22;33995;48.202;16.260;2023-02-28T17:53:21;3.30;99.90
48206;DHT22;33995;48.202;16.260;2023-02-28T17:55:50;3.10;99.90
48206;DHT22;33995;48.202;16.260;2023-02-28T17:58:17;3.10;99.90
48206;DHT22;33995;48.202;16.260;2023-02-28T18:00:45;2.80;99.90
48206;DHT22;33995;48.202;16.260;2023-02-28T18:03:14;2.80;99.90
48206;DHT22;33995;48.202;16.260;2023-02-28T18:05:45;2.80;99.90
48206;DHT22;33995;48.202;16.260;2023-02-28T18:08:15;2.80;99.90
48206;DHT22;33995;48.202;16.260;2023-02-28T18:10:46;2.70;99.90
48206;DHT22;33995;48.202;16.260;2023-02-28T18:17:24;2.80;99.90
48206;DHT22;33995;48.202;16.260;2023-02-28T18:19:58;2.80;99.90
48206;DHT22;33995;48.202;16.260;2023-02-28T18:22:28;2.90;99.90
48206;DHT22;33995;48.202;16.260;2023-02-28T18:25:08;2.80;99.90
48206;DHT22;33995;48.202;16.260;2023-02-28T18:27:37;2.90;99.90
48206;DHT22;33995;48.202;16.260;2023-02-28T18:30:32;2.90;99.90
48206;DHT22;33995;48.202;16.260;2023-02-28T18:33:04;2.90;99.90
48206;DHT22;33995;48.202;16.260;2023-02-28T18:35:37;3.00;99.90
48206;DHT22;33995;48.202;16.260;2023-02-28T18:41:00;3.00;99.90
48206;DHT22;33995;48.202;16.260;2023-02-28T18:43:54;2.80;99.90
48206;DHT22;33995;48.202;16.260;2023-02-28T18:46:27;2.70;99.90
48206;DHT22;33995;48.202;16.260;2023-02-28T18:49:06;2.70;99.90
48206;DHT22;33995;48.202;16.260;2023-02-28T18:51:46;2.70;99.90
48206;DHT22;33995;48.202;16.260;2023-02-28T18:54:21;2.70;99.90
48206;DHT22;33995;48.202;16.260;2023-02-28T18:56:51;2.70;99.90